Time;durP1;ratioP1;P1;durP2;ratioP2;P2;SDS_P1;SDS_P2;PMS_P1;PMS_P2;Temp;Humidity;BMP_temperature;BMP_pressure;BME280_temperature;BME280_humidity;BME280_pressure;Samples;Min_cycle;Max_cycle;Signal;HPM_P1;HPM_P2
2021/10/04 00:00:07;;;;;;;;;;;17.50;99.90;;;;;;4960153;28;19948;-87
2021/10/04 00:02:35;;;;;;;;;;;17.50;99.90;;;;;;4957962;29;19972;-87
2021/10/04 00:05:01;;;;;;;;;;;17.40;99.90;;;;;;4958000;28;19946;-87
2021/10/04 00:07:28;;;;;;;;;;;17.40;99.90;;;;;;4958633;28;20470;-87
2021/10/04 00:09:54;;;;;;;;;;;17.40;99.90;;;;;;4958935;28;19998;-88
2021/10/04 00:12:20;;;;;;;;;;;17.50;99.90;;;;;;4959446;28;19951;-87
2021/10/04 00:14:47;;;;;;;;;;;17.50;99.90;;;;;;4959106;28;19967;-88
2021/10/04 00:17:14;;;;;;;;;;;17.50;99.90;;;;;;4964503;28;19946;-87
2021/10/04 00:19:41;;;;;;;;;;;17.50;99.90;;;;;;4974610;28;19948;-87
2021/10/04 00:22:08;;;;;;;;;;;17.50;99.90;;;;;;4976241;28;19974;-88
2021/10/04 00:24:34;;;;;;;;;;;17.50;99.90;;;;;;4975347;28;19947;-88
2021/10/04 00:27:01;;;;;;;;;;;17.60;99.90;;;;;;4977480;28;19952;-87
2021/10/04 00:29:27;;;;;;;;;;;17.60;99.90;;;;;;4979779;28;19956;-87
2021/10/04 00:31:54;;;;;;;;;;;17.50;99.90;;;;;;4977252;28;19970;-87
2021/10/04 00:34:20;;;;;;;;;;;17.60;99.90;;;;;;4977702;28;19928;-88
2021/10/04 00:36:48;;;;;;;;;;;17.70;99.90;;;;;;4980245;28;19929;-89
2021/10/04 00:39:15;;;;;;;;;;;17.70;99.90;;;;;;4979562;28;19942;-87
2021/10/04 00:41:43;;;;;;;;;;;17.70;99.90;;;;;;4980013;28;19989;-87
2021/10/04 00:44:10;;;;;;;;;;;17.60;99.90;;;;;;4978684;28;19981;-87
2021/10/04 00:46:36;;;;;;;;;;;17.60;99.90;;;;;;4979222;28;19943;-85
2021/10/04 00:49:03;;;;;;;;;;;17.60;99.90;;;;;;4978527;28;19946;-86
2021/10/04 00:51:30;;;;;;;;;;;17.60;99.90;;;;;;4978497;28;19960;-87
2021/10/04 00:53:59;;;;;;;;;;;17.60;99.90;;;;;;4979624;28;19953;-86
2021/10/04 00:56:26;;;;;;;;;;;17.60;99.90;;;;;;4979599;28;19950;-86
2021/10/04 00:58:53;;;;;;;;;;;17.60;99.90;;;;;;4980113;28;19962;-85
2021/10/04 01:01:23;;;;;;;;;;;17.60;99.90;;;;;;4980154;28;19974;-83
2021/10/04 01:03:50;;;;;;;;;;;17.60;99.90;;;;;;4980138;28;19998;-85
2021/10/04 01:06:16;;;;;;;;;;;17.60;99.90;;;;;;4972571;28;19975;-87
2021/10/04 01:08:43;;;;;;;;;;;17.60;99.90;;;;;;4970079;28;19992;-86
2021/10/04 01:11:10;;;;;;;;;;;17.60;99.90;;;;;;4969065;28;20011;-86
2021/10/04 01:13:37;;;;;;;;;;;17.60;99.90;;;;;;4969651;28;19958;-87
2021/10/04 01:16:04;;;;;;;;;;;17.60;99.90;;;;;;4970773;28;19947;-87
2021/10/04 01:18:30;;;;;;;;;;;17.50;99.90;;;;;;4969835;29;19963;-87
2021/10/04 01:20:58;;;;;;;;;;;17.50;99.90;;;;;;4968653;28;19983;-87
2021/10/04 01:23:24;;;;;;;;;;;17.40;99.90;;;;;;4967415;28;19948;-86
2021/10/04 01:25:51;;;;;;;;;;;17.40;99.90;;;;;;4964702;28;19954;-86
2021/10/04 01:28:20;;;;;;;;;;;17.40;99.90;;;;;;4969191;28;19946;-87
2021/10/04 01:30:46;;;;;;;;;;;17.30;99.90;;;;;;4967546;28;19991;-87
2021/10/04 01:33:13;;;;;;;;;;;17.40;99.90;;;;;;4968306;28;19950;-87
2021/10/04 01:35:39;;;;;;;;;;;17.40;99.90;;;;;;4967027;28;19943;-87
2021/10/04 01:38:07;;;;;;;;;;;17.40;99.90;;;;;;4967516;28;19995;-86
2021/10/04 01:40:34;;;;;;;;;;;17.40;99.90;;;;;;4967879;28;19963;-87
2021/10/04 01:43:00;;;;;;;;;;;17.50;99.90;;;;;;4979019;28;19932;-86
2021/10/04 01:45:28;;;;;;;;;;;17.40;99.90;;;;;;4979512;28;19953;-85
2021/10/04 01:47:58;;;;;;;;;;;17.40;99.90;;;;;;4979494;28;19932;-89
2021/10/04 01:50:26;;;;;;;;;;;17.30;99.90;;;;;;4979210;28;19962;-86
2021/10/04 01:52:54;;;;;;;;;;;17.40;99.90;;;;;;4979440;28;19952;-87
2021/10/04 01:55:22;;;;;;;;;;;17.30;99.90;;;;;;4974479;28;19971;-86
2021/10/04 01:57:48;;;;;;;;;;;17.20;99.90;;;;;;4979339;28;19931;-86
2021/10/04 02:00:19;;;;;;;;;;;17.20;99.90;;;;;;4979406;28;19960;-87
2021/10/04 02:02:47;;;;;;;;;;;17.10;99.90;;;;;;4979044;28;19954;-85
2021/10/04 02:05:14;;;;;;;;;;;17.00;99.90;;;;;;4978607;28;19949;-85
2021/10/04 02:07:41;;;;;;;;;;;17.00;99.90;;;;;;4977064;29;19930;-86
2021/10/04 02:10:09;;;;;;;;;;;16.90;99.90;;;;;;4978185;28;19958;-86
2021/10/04 02:12:36;;;;;;;;;;;17.00;99.90;;;;;;4965619;29;19947;-87
2021/10/04 02:15:03;;;;;;;;;;;16.90;99.90;;;;;;4969677;29;19952;-86
2021/10/04 02:17:31;;;;;;;;;;;16.80;99.90;;;;;;4966028;28;20382;-86
2021/10/04 02:19:57;;;;;;;;;;;16.80;99.90;;;;;;4967226;28;20009;-87
2021/10/04 02:22:24;;;;;;;;;;;16.80;99.90;;;;;;4963401;28;19956;-86
2021/10/04 02:24:54;;;;;;;;;;;16.70;99.90;;;;;;4960796;28;20481;-87
2021/10/04 02:27:20;;;;;;;;;;;16.60;99.90;;;;;;4960529;28;19949;-87
2021/10/04 02:29:48;;;;;;;;;;;16.60;99.90;;;;;;4961628;28;19949;-86
2021/10/04 02:32:14;;;;;;;;;;;16.50;99.90;;;;;;4962072;29;19961;-87
2021/10/04 02:34:41;;;;;;;;;;;16.50;99.90;;;;;;4964601;28;20301;-86
2021/10/04 02:37:07;;;;;;;;;;;16.50;99.90;;;;;;4964034;28;19949;-86
2021/10/04 02:39:34;;;;;;;;;;;16.60;99.90;;;;;;4964291;28;20437;-87
2021/10/04 02:42:01;;;;;;;;;;;16.50;99.90;;;;;;4963899;28;19975;-87
2021/10/04 02:44:27;;;;;;;;;;;16.50;99.90;;;;;;4964793;28;19947;-86
2021/10/04 02:46:55;;;;;;;;;;;16.50;99.90;;;;;;4965773;28;19950;-86
2021/10/04 02:49:25;;;;;;;;;;;16.50;99.90;;;;;;4964518;29;19945;-86
2021/10/04 02:51:51;;;;;;;;;;;16.40;99.90;;;;;;4966322;28;19966;-86
2021/10/04 02:54:19;;;;;;;;;;;16.40;99.90;;;;;;4965480;28;19946;-87
2021/10/04 02:56:46;;;;;;;;;;;16.30;99.90;;;;;;4963707;28;19951;-87
2021/10/04 02:59:15;;;;;;;;;;;16.30;99.90;;;;;;4965389;28;19962;-87
2021/10/04 03:01:44;;;;;;;;;;;16.30;99.90;;;;;;4965084;28;19992;-87
2021/10/04 03:04:12;;;;;;;;;;;16.30;99.90;;;;;;4965316;28;20318;-87
2021/10/04 03:06:38;;;;;;;;;;;16.30;99.90;;;;;;4965169;29;19948;-86
2021/10/04 03:09:05;;;;;;;;;;;16.30;99.90;;;;;;4964790;28;19948;-86
2021/10/04 03:11:31;;;;;;;;;;;16.30;99.90;;;;;;4965408;28;19974;-86
2021/10/04 03:13:58;;;;;;;;;;;16.40;99.90;;;;;;4964971;28;19988;-87
2021/10/04 03:16:24;;;;;;;;;;;16.30;99.90;;;;;;4965200;28;19946;-86
2021/10/04 03:18:51;;;;;;;;;;;16.30;99.90;;;;;;4965385;28;19985;-88
2021/10/04 03:21:19;;;;;;;;;;;16.30;99.90;;;;;;4969235;28;19975;-86
2021/10/04 03:23:45;;;;;;;;;;;16.30;99.90;;;;;;4961734;28;19949;-86
2021/10/04 03:26:12;;;;;;;;;;;16.40;99.90;;;;;;4961222;28;19942;-86
2021/10/04 03:28:38;;;;;;;;;;;16.30;99.90;;;;;;4959765;28;19949;-86
2021/10/04 03:31:05;;;;;;;;;;;16.20;99.90;;;;;;4959798;28;19941;-86
2021/10/04 03:33:32;;;;;;;;;;;16.20;99.90;;;;;;4959531;28;20275;-86
2021/10/04 03:36:01;;;;;;;;;;;16.20;99.90;;;;;;4960558;28;19952;-86
2021/10/04 03:38:29;;;;;;;;;;;16.10;99.90;;;;;;4960910;28;19950;-86
2021/10/04 03:40:56;;;;;;;;;;;15.90;99.90;;;;;;4961201;29;20438;-86
2021/10/04 03:43:22;;;;;;;;;;;15.90;99.90;;;;;;4964284;28;20014;-86
2021/10/04 03:45:49;;;;;;;;;;;15.80;99.90;;;;;;4960094;28;19966;-86
2021/10/04 03:48:15;;;;;;;;;;;15.80;99.90;;;;;;4959860;28;19957;-86
2021/10/04 03:50:42;;;;;;;;;;;15.70;99.90;;;;;;4963551;28;19966;-86
2021/10/04 03:53:08;;;;;;;;;;;15.60;99.90;;;;;;4963899;28;19944;-86
2021/10/04 03:55:36;;;;;;;;;;;15.50;99.90;;;;;;4960767;28;19979;-86
2021/10/04 03:58:03;;;;;;;;;;;15.40;99.90;;;;;;4961722;28;19948;-86
2021/10/04 04:00:29;;;;;;;;;;;15.40;99.90;;;;;;4966538;28;19966;-86
2021/10/04 04:02:56;;;;;;;;;;;15.40;99.90;;;;;;4977502;28;19956;-86
2021/10/04 04:05:22;;;;;;;;;;;15.20;99.90;;;;;;4977850;28;19953;-86
2021/10/04 04:07:49;;;;;;;;;;;15.20;99.90;;;;;;4977965;28;19985;-86
2021/10/04 04:10:16;;;;;;;;;;;15.20;99.90;;;;;;4970548;28;20033;-87
2021/10/04 04:12:44;;;;;;;;;;;15.20;99.90;;;;;;4962254;28;19952;-87
2021/10/04 04:15:12;;;;;;;;;;;15.10;99.90;;;;;;4963076;28;19965;-86
2021/10/04 04:17:38;;;;;;;;;;;15.10;99.90;;;;;;4965334;28;19970;-85
2021/10/04 04:20:05;;;;;;;;;;;15.10;99.90;;;;;;4966200;28;19964;-86
2021/10/04 04:22:32;;;;;;;;;;;15.10;99.90;;;;;;4964653;29;19992;-86
2021/10/04 04:24:58;;;;;;;;;;;15.10;99.90;;;;;;4963876;28;19956;-85
2021/10/04 04:27:25;;;;;;;;;;;15.00;99.90;;;;;;4965484;28;19955;-86
2021/10/04 04:29:53;;;;;;;;;;;15.10;99.90;;;;;;4964182;28;20422;-86
2021/10/04 04:32:21;;;;;;;;;;;15.00;99.90;;;;;;4964251;28;19957;-86
2021/10/04 04:34:47;;;;;;;;;;;15.00;99.90;;;;;;4964679;28;19995;-85
2021/10/04 04:37:14;;;;;;;;;;;15.00;99.90;;;;;;4964553;28;19950;-86
2021/10/04 04:39:40;;;;;;;;;;;15.00;99.90;;;;;;4963892;28;20458;-86
2021/10/04 04:42:07;;;;;;;;;;;15.00;99.90;;;;;;4963172;28;20387;-85
2021/10/04 04:44:34;;;;;;;;;;;15.00;99.90;;;;;;4962227;28;20411;-85
2021/10/04 04:47:02;;;;;;;;;;;15.00;99.90;;;;;;4961763;28;20489;-85
2021/10/04 04:49:29;;;;;;;;;;;15.00;99.90;;;;;;4961678;28;20002;-84
2021/10/04 04:51:56;;;;;;;;;;;15.00;99.90;;;;;;4963115;28;20033;-84
2021/10/04 04:54:23;;;;;;;;;;;15.00;99.90;;;;;;4962408;28;19956;-85
2021/10/04 04:56:50;;;;;;;;;;;15.00;99.90;;;;;;4961998;28;20007;-85
2021/10/04 04:59:16;;;;;;;;;;;15.00;99.90;;;;;;4963569;28;20019;-86
2021/10/04 05:01:43;;;;;;;;;;;14.90;99.90;;;;;;4964411;28;20013;-86
2021/10/04 05:04:11;;;;;;;;;;;14.90;99.90;;;;;;4965721;28;19964;-86
2021/10/04 05:06:38;;;;;;;;;;;15.00;99.90;;;;;;4966469;28;19962;-85
2021/10/04 05:09:04;;;;;;;;;;;14.90;99.90;;;;;;4967458;28;19998;-86
2021/10/04 05:11:31;;;;;;;;;;;15.00;99.90;;;;;;4966010;28;19968;-85
2021/10/04 05:13:57;;;;;;;;;;;14.90;99.90;;;;;;4964823;28;20398;-84
2021/10/04 05:16:24;;;;;;;;;;;14.90;99.90;;;;;;4966217;28;19948;-85
2021/10/04 05:18:50;;;;;;;;;;;14.90;99.90;;;;;;4964815;28;19950;-85
2021/10/04 05:21:18;;;;;;;;;;;15.00;99.90;;;;;;4964312;28;20433;-85
2021/10/04 05:23:45;;;;;;;;;;;14.90;99.90;;;;;;4965155;28;19947;-86
2021/10/04 05:26:11;;;;;;;;;;;15.00;99.90;;;;;;4965562;28;19952;-86
2021/10/04 05:28:38;;;;;;;;;;;14.90;99.90;;;;;;4967827;28;19950;-86
2021/10/04 05:31:05;;;;;;;;;;;15.00;99.90;;;;;;4967466;28;19964;-85
2021/10/04 05:33:32;;;;;;;;;;;15.10;99.90;;;;;;4971531;28;19953;-85
2021/10/04 05:35:58;;;;;;;;;;;15.00;99.90;;;;;;4968872;28;19948;-85
2021/10/04 05:38:26;;;;;;;;;;;15.00;99.90;;;;;;4973818;28;20023;-86
2021/10/04 05:40:53;;;;;;;;;;;15.10;99.90;;;;;;4974010;28;19990;-86
2021/10/04 05:43:19;;;;;;;;;;;15.00;99.90;;;;;;4975040;28;19957;-85
2021/10/04 05:45:46;;;;;;;;;;;15.10;99.90;;;;;;4975623;28;19971;-86
2021/10/04 05:48:12;;;;;;;;;;;15.10;99.90;;;;;;4976185;28;19958;-85
2021/10/04 05:50:39;;;;;;;;;;;15.10;99.90;;;;;;4971914;28;19971;-86
2021/10/04 05:53:05;;;;;;;;;;;15.00;99.90;;;;;;4972918;28;19953;-85
2021/10/04 05:55:33;;;;;;;;;;;15.10;99.90;;;;;;4968918;28;19955;-85
2021/10/04 05:57:59;;;;;;;;;;;15.10;99.90;;;;;;4967421;29;20408;-86
2021/10/04 06:00:26;;;;;;;;;;;15.10;99.90;;;;;;4966735;28;19967;-86
2021/10/04 06:02:52;;;;;;;;;;;15.00;99.90;;;;;;4965911;28;19952;-86
2021/10/04 06:05:19;;;;;;;;;;;15.10;99.90;;;;;;4966619;28;19958;-86
2021/10/04 06:07:45;;;;;;;;;;;15.00;99.90;;;;;;4966664;28;19950;-86
2021/10/04 06:10:13;;;;;;;;;;;15.00;99.90;;;;;;4965712;28;19960;-86
2021/10/04 06:12:41;;;;;;;;;;;14.90;99.90;;;;;;4965449;28;19960;-86
2021/10/04 06:15:08;;;;;;;;;;;15.00;99.90;;;;;;4964062;29;19971;-87
2021/10/04 06:17:35;;;;;;;;;;;15.00;99.90;;;;;;4966348;29;19952;-87
2021/10/04 06:20:01;;;;;;;;;;;15.00;99.90;;;;;;4965829;29;20005;-87
2021/10/04 06:22:28;;;;;;;;;;;15.00;99.90;;;;;;4964830;28;19950;-86
2021/10/04 06:24:54;;;;;;;;;;;15.00;99.90;;;;;;4965257;29;19980;-86
2021/10/04 06:27:23;;;;;;;;;;;15.10;99.90;;;;;;4963757;28;20480;-87
2021/10/04 06:29:51;;;;;;;;;;;15.20;99.90;;;;;;4965009;28;19992;-87
2021/10/04 06:32:17;;;;;;;;;;;15.10;99.90;;;;;;4964411;29;20434;-86
2021/10/04 06:34:44;;;;;;;;;;;15.10;99.90;;;;;;4963396;28;19951;-87
2021/10/04 06:37:11;;;;;;;;;;;15.20;99.90;;;;;;4965294;28;19958;-87
2021/10/04 06:39:37;;;;;;;;;;;15.10;99.90;;;;;;4965477;28;19950;-86
2021/10/04 06:42:05;;;;;;;;;;;15.00;99.90;;;;;;4964714;28;20049;-86
2021/10/04 06:44:31;;;;;;;;;;;15.10;99.90;;;;;;4967267;29;19953;-86
2021/10/04 06:47:00;;;;;;;;;;;15.10;99.90;;;;;;4965274;28;19952;-86
2021/10/04 06:49:26;;;;;;;;;;;15.10;99.90;;;;;;4964709;28;19949;-86
2021/10/04 06:51:53;;;;;;;;;;;15.10;99.90;;;;;;4965485;28;19971;-87
2021/10/04 06:54:19;;;;;;;;;;;15.10;99.90;;;;;;4968196;28;19954;-85
2021/10/04 06:56:46;;;;;;;;;;;15.10;99.90;;;;;;4977300;28;19937;-86
2021/10/04 06:59:12;;;;;;;;;;;15.10;99.90;;;;;;4976796;28;19955;-86
2021/10/04 07:01:39;;;;;;;;;;;15.10;99.90;;;;;;4975545;28;19954;-88
2021/10/04 07:04:07;;;;;;;;;;;15.00;99.90;;;;;;4978047;28;19931;-87
2021/10/04 07:06:34;;;;;;;;;;;15.00;99.90;;;;;;4977671;28;20285;-87
2021/10/04 07:09:00;;;;;;;;;;;15.00;99.90;;;;;;4978086;28;19934;-86
2021/10/04 07:11:27;;;;;;;;;;;15.00;99.90;;;;;;4975656;28;19972;-87
2021/10/04 07:13:54;;;;;;;;;;;15.00;99.90;;;;;;4966332;28;19947;-88
2021/10/04 07:16:20;;;;;;;;;;;15.10;99.90;;;;;;4965076;28;19959;-87
2021/10/04 07:18:47;;;;;;;;;;;15.00;99.90;;;;;;4964751;28;19944;-87
2021/10/04 07:21:15;;;;;;;;;;;15.00;99.90;;;;;;4966257;28;19968;-86
2021/10/04 07:23:43;;;;;;;;;;;15.00;99.90;;;;;;4968226;28;19958;-87
2021/10/04 07:26:10;;;;;;;;;;;15.00;99.90;;;;;;4966636;28;20002;-86
2021/10/04 07:28:36;;;;;;;;;;;14.90;99.90;;;;;;4967559;28;20290;-86
2021/10/04 07:31:03;;;;;;;;;;;15.00;99.90;;;;;;4965237;28;19973;-85
2021/10/04 07:33:29;;;;;;;;;;;15.00;99.90;;;;;;4966542;28;19953;-87
2021/10/04 07:35:57;;;;;;;;;;;15.00;99.90;;;;;;4965959;28;20002;-87
2021/10/04 07:38:25;;;;;;;;;;;14.90;99.90;;;;;;4965407;28;19953;-86
2021/10/04 07:40:52;;;;;;;;;;;15.00;99.90;;;;;;4967248;28;19982;-86
2021/10/04 07:43:21;;;;;;;;;;;15.10;99.90;;;;;;4966665;28;19957;-87
2021/10/04 07:45:48;;;;;;;;;;;15.00;99.90;;;;;;4966504;29;19986;-87
2021/10/04 07:48:14;;;;;;;;;;;15.00;99.90;;;;;;4970678;28;19950;-85
2021/10/04 07:50:44;;;;;;;;;;;15.10;99.90;;;;;;4971843;28;19968;-84
2021/10/04 07:53:10;;;;;;;;;;;15.10;99.90;;;;;;4970954;28;20038;-84
2021/10/04 07:55:38;;;;;;;;;;;15.10;99.90;;;;;;4970887;28;19953;-86
2021/10/04 07:58:05;;;;;;;;;;;15.20;99.90;;;;;;4969795;29;19972;-86
2021/10/04 08:00:31;;;;;;;;;;;15.20;99.90;;;;;;4968497;28;20392;-84
2021/10/04 08:02:58;;;;;;;;;;;15.20;99.90;;;;;;4970605;28;19959;-85
2021/10/04 08:05:24;;;;;;;;;;;15.10;99.90;;;;;;4969572;28;20417;-85
2021/10/04 08:07:51;;;;;;;;;;;15.20;99.90;;;;;;4968837;28;19943;-85
2021/10/04 08:10:17;;;;;;;;;;;15.20;99.90;;;;;;4965886;28;19966;-86
2021/10/04 08:12:45;;;;;;;;;;;15.30;99.90;;;;;;4963556;28;19949;-86
2021/10/04 08:15:13;;;;;;;;;;;15.30;99.90;;;;;;4963680;28;19950;-86
2021/10/04 08:17:40;;;;;;;;;;;15.30;99.90;;;;;;4963076;28;19949;-86
2021/10/04 08:20:08;;;;;;;;;;;15.40;99.90;;;;;;4963371;28;19956;-84
2021/10/04 08:22:35;;;;;;;;;;;15.30;99.90;;;;;;4967536;28;19956;-85
2021/10/04 08:25:04;;;;;;;;;;;15.30;99.90;;;;;;4966079;28;19954;-86
2021/10/04 08:27:30;;;;;;;;;;;15.30;99.90;;;;;;4963900;28;19962;-86
2021/10/04 08:29:58;;;;;;;;;;;15.40;99.90;;;;;;4963289;28;19948;-86
2021/10/04 08:32:25;;;;;;;;;;;15.40;99.90;;;;;;4964738;28;19976;-86
2021/10/04 08:34:54;;;;;;;;;;;15.40;99.90;;;;;;4964827;28;19953;-86
2021/10/04 08:37:20;;;;;;;;;;;15.40;99.90;;;;;;4968860;28;19950;-85
2021/10/04 08:39:47;;;;;;;;;;;15.40;99.90;;;;;;4975652;28;19954;-86
2021/10/04 08:42:14;;;;;;;;;;;15.40;99.90;;;;;;4975907;28;19978;-85
2021/10/04 08:44:44;;;;;;;;;;;15.40;99.90;;;;;;4976807;28;19946;-85
2021/10/04 08:47:11;;;;;;;;;;;15.50;99.90;;;;;;4976179;28;19941;-88
2021/10/04 08:49:38;;;;;;;;;;;15.50;99.90;;;;;;4978442;28;19939;-85
2021/10/04 08:52:05;;;;;;;;;;;15.50;99.90;;;;;;4978520;28;19980;-85
2021/10/04 08:54:31;;;;;;;;;;;15.40;99.90;;;;;;4978347;28;19960;-85
2021/10/04 08:56:58;;;;;;;;;;;15.50;99.90;;;;;;4978144;28;19936;-85
2021/10/04 08:59:26;;;;;;;;;;;15.50;99.90;;;;;;4977306;28;19956;-86
2021/10/04 09:02:07;;;;;;;;;;;15.50;99.90;;;;;;4977987;28;20120;-85
2021/10/04 09:04:35;;;;;;;;;;;15.40;99.90;;;;;;4980238;28;19948;-86
2021/10/04 09:07:02;;;;;;;;;;;15.40;99.90;;;;;;4978300;28;19959;-85
2021/10/04 09:09:28;;;;;;;;;;;15.40;99.90;;;;;;4978129;29;19941;-86
2021/10/04 09:11:55;;;;;;;;;;;15.40;99.90;;;;;;4969699;28;19981;-85
2021/10/04 09:14:29;;;;;;;;;;;15.40;99.90;;;;;;4966387;28;19948;-87
2021/10/04 09:16:59;;;;;;;;;;;15.40;99.90;;;;;;4965802;28;19981;-86
2021/10/04 09:19:27;;;;;;;;;;;15.40;99.90;;;;;;4966594;28;20426;-85
2021/10/04 09:22:06;;;;;;;;;;;15.40;99.90;;;;;;4967971;29;19973;-85
2021/10/04 09:24:32;;;;;;;;;;;15.40;99.90;;;;;;4967849;28;20101;-86
2021/10/04 09:26:58;;;;;;;;;;;15.50;99.90;;;;;;4964545;28;19946;-86
2021/10/04 09:29:26;;;;;;;;;;;15.50;99.90;;;;;;4964823;28;19963;-85
2021/10/04 09:31:52;;;;;;;;;;;15.50;99.90;;;;;;4961513;28;19978;-85
2021/10/04 09:34:19;;;;;;;;;;;15.50;99.90;;;;;;4958504;29;19982;-85
2021/10/04 09:36:47;;;;;;;;;;;15.50;99.90;;;;;;4958440;28;19959;-84
2021/10/04 09:39:26;;;;;;;;;;;15.50;99.90;;;;;;4959079;28;20012;-86
2021/10/04 09:42:10;;;;;;;;;;;15.50;99.90;;;;;;4959057;28;20062;-85
2021/10/04 09:44:44;;;;;;;;;;;15.50;99.90;;;;;;4959876;29;20400;-85
2021/10/04 09:47:11;;;;;;;;;;;15.50;99.90;;;;;;4960930;28;19976;-86
2021/10/04 09:49:49;;;;;;;;;;;15.50;99.90;;;;;;4963030;28;20001;-85
2021/10/04 09:52:15;;;;;;;;;;;15.50;99.90;;;;;;4963202;28;20448;-85
2021/10/04 09:54:44;;;;;;;;;;;15.50;99.90;;;;;;4964326;28;19969;-84
2021/10/04 09:57:17;;;;;;;;;;;15.60;99.90;;;;;;4964916;28;19972;-85
2021/10/04 09:59:44;;;;;;;;;;;15.60;99.90;;;;;;4967342;28;19985;-86
2021/10/04 10:02:12;;;;;;;;;;;15.50;99.90;;;;;;4972374;29;19957;-86
2021/10/04 10:04:39;;;;;;;;;;;15.50;99.90;;;;;;4977014;28;19948;-85
2021/10/04 10:07:07;;;;;;;;;;;15.50;99.90;;;;;;4973183;28;19951;-85
2021/10/04 10:09:35;;;;;;;;;;;15.50;99.90;;;;;;4972546;28;19949;-86
2021/10/04 10:12:04;;;;;;;;;;;15.50;99.90;;;;;;4973208;28;19966;-86
2021/10/04 10:14:38;;;;;;;;;;;15.50;99.90;;;;;;4978005;28;19961;-86
2021/10/04 10:17:04;;;;;;;;;;;15.60;99.90;;;;;;4972120;28;19949;-86
2021/10/04 10:19:31;;;;;;;;;;;15.60;99.90;;;;;;4966668;28;19950;-85
2021/10/04 10:22:10;;;;;;;;;;;15.70;99.90;;;;;;4965884;28;19965;-87
2021/10/04 10:24:36;;;;;;;;;;;15.70;99.90;;;;;;4971859;28;19933;-86
2021/10/04 10:27:04;;;;;;;;;;;15.70;99.90;;;;;;4977589;28;19939;-86
2021/10/04 10:29:32;;;;;;;;;;;15.70;99.90;;;;;;4977365;28;19977;-86
2021/10/04 10:32:20;;;;;;;;;;;15.70;99.90;;;;;;4977781;28;19978;-88
2021/10/04 10:34:57;;;;;;;;;;;15.70;99.90;;;;;;4969091;29;20036;-87
2021/10/04 10:37:28;;;;;;;;;;;15.60;99.90;;;;;;4965249;28;20478;-86
2021/10/04 10:39:55;;;;;;;;;;;15.80;99.90;;;;;;4964751;29;19961;-86
2021/10/04 10:42:27;;;;;;;;;;;15.80;99.90;;;;;;4966224;28;19988;-85
2021/10/04 10:45:14;;;;;;;;;;;15.80;99.90;;;;;;4964972;28;19956;-85
2021/10/04 10:47:52;;;;;;;;;;;15.80;99.90;;;;;;4965595;29;19956;-87
2021/10/04 10:50:24;;;;;;;;;;;15.80;99.90;;;;;;4965950;28;19965;-86
2021/10/04 10:53:02;;;;;;;;;;;15.80;99.90;;;;;;4964595;28;19979;-86
2021/10/04 10:55:30;;;;;;;;;;;15.80;99.90;;;;;;4964452;28;19970;-85
2021/10/04 10:58:02;;;;;;;;;;;15.70;99.90;;;;;;4964117;28;19958;-85
2021/10/04 11:00:30;;;;;;;;;;;15.70;99.90;;;;;;4963931;28;19993;-87
2021/10/04 11:02:59;;;;;;;;;;;15.80;99.90;;;;;;4963188;28;19963;-87
2021/10/04 11:05:44;;;;;;;;;;;15.70;99.90;;;;;;4964370;28;19951;-88
2021/10/04 11:08:11;;;;;;;;;;;15.70;99.90;;;;;;4965785;28;19949;-87
2021/10/04 11:10:58;;;;;;;;;;;15.70;99.90;;;;;;4966371;28;20033;-86
2021/10/04 11:13:27;;;;;;;;;;;15.70;99.90;;;;;;4964214;29;19970;-87
2021/10/04 11:15:54;;;;;;;;;;;15.70;99.90;;;;;;4964573;28;19948;-84
2021/10/04 11:18:21;;;;;;;;;;;15.70;99.90;;;;;;4965102;28;19993;-85
2021/10/04 11:20:48;;;;;;;;;;;15.80;99.90;;;;;;4963324;28;20312;-86
2021/10/04 11:23:16;;;;;;;;;;;15.80;99.90;;;;;;4963601;28;19978;-86
2021/10/04 11:25:43;;;;;;;;;;;15.80;99.90;;;;;;4971898;28;19955;-86
2021/10/04 11:28:10;;;;;;;;;;;15.80;99.90;;;;;;4970821;28;19955;-86
2021/10/04 11:30:54;;;;;;;;;;;15.80;99.90;;;;;;4966013;28;19991;-87
2021/10/04 11:33:23;;;;;;;;;;;15.70;99.90;;;;;;4965914;28;21389;-86
2021/10/04 11:35:54;;;;;;;;;;;15.70;99.90;;;;;;4966811;29;19949;-86
2021/10/04 11:38:20;;;;;;;;;;;15.80;99.90;;;;;;4969994;28;19950;-85
2021/10/04 11:40:47;;;;;;;;;;;15.70;99.90;;;;;;4970436;28;19962;-85
2021/10/04 11:43:14;;;;;;;;;;;15.70;99.90;;;;;;4969305;28;19971;-86
2021/10/04 11:45:40;;;;;;;;;;;15.70;99.90;;;;;;4968377;28;19951;-85
2021/10/04 11:48:08;;;;;;;;;;;15.70;99.90;;;;;;4967708;28;20411;-87
2021/10/04 11:50:46;;;;;;;;;;;15.70;99.90;;;;;;4966240;28;19968;-87
2021/10/04 11:53:14;;;;;;;;;;;15.70;99.90;;;;;;4963943;28;19952;-87
2021/10/04 11:55:41;;;;;;;;;;;15.80;99.90;;;;;;4964107;28;19949;-86
2021/10/04 11:58:15;;;;;;;;;;;15.80;99.90;;;;;;4962749;28;19948;-85
2021/10/04 12:00:45;;;;;;;;;;;15.80;99.90;;;;;;4961842;28;19966;-86
2021/10/04 12:03:23;;;;;;;;;;;15.70;99.90;;;;;;4958462;28;20013;-86
2021/10/04 12:05:51;;;;;;;;;;;15.80;99.90;;;;;;4960079;28;19952;-85
2021/10/04 12:08:20;;;;;;;;;;;15.80;99.90;;;;;;4960593;29;19990;-85
2021/10/04 12:10:49;;;;;;;;;;;15.80;99.90;;;;;;4960581;28;20458;-84
2021/10/04 12:13:17;;;;;;;;;;;15.80;99.90;;;;;;4962324;28;20404;-85
2021/10/04 12:15:44;;;;;;;;;;;15.80;99.90;;;;;;4960538;28;20051;-86
2021/10/04 12:18:15;;;;;;;;;;;15.70;99.90;;;;;;4959778;28;20249;-85
2021/10/04 12:20:42;;;;;;;;;;;15.60;99.90;;;;;;4960031;28;20058;-86
2021/10/04 12:23:15;;;;;;;;;;;15.60;99.90;;;;;;4964326;28;20020;-85
2021/10/04 12:25:41;;;;;;;;;;;15.60;99.90;;;;;;4967477;28;19949;-85
2021/10/04 12:28:08;;;;;;;;;;;15.60;99.90;;;;;;4966143;28;20411;-86
2021/10/04 12:30:42;;;;;;;;;;;15.50;99.90;;;;;;4964145;28;19967;-85
2021/10/04 12:33:08;;;;;;;;;;;15.50;99.90;;;;;;4964724;28;19956;-85
2021/10/04 12:35:36;;;;;;;;;;;15.50;99.90;;;;;;4966012;28;19958;-86
2021/10/04 12:38:06;;;;;;;;;;;15.50;99.90;;;;;;4966260;29;19952;-86
2021/10/04 12:40:39;;;;;;;;;;;15.50;99.90;;;;;;4963927;28;19973;-86
2021/10/04 12:43:07;;;;;;;;;;;15.50;99.90;;;;;;4965649;28;19998;-86
2021/10/04 12:45:35;;;;;;;;;;;15.50;99.90;;;;;;4966492;28;19951;-86
2021/10/04 12:48:03;;;;;;;;;;;15.50;99.90;;;;;;4967564;28;19947;-86
2021/10/04 12:50:31;;;;;;;;;;;15.50;99.90;;;;;;4967690;28;19967;-87
2021/10/04 12:53:12;;;;;;;;;;;15.50;99.90;;;;;;4977706;28;19968;-85
2021/10/04 12:55:52;;;;;;;;;;;15.50;99.90;;;;;;4977217;28;19970;-86
2021/10/04 12:58:22;;;;;;;;;;;15.50;99.90;;;;;;4978371;28;19976;-85
2021/10/04 13:00:49;;;;;;;;;;;15.50;99.90;;;;;;4977755;28;19964;-85
2021/10/04 13:03:16;;;;;;;;;;;15.50;99.90;;;;;;4978148;28;20014;-86
2021/10/04 13:05:42;;;;;;;;;;;15.50;99.90;;;;;;4979098;28;19940;-85
2021/10/04 13:08:10;;;;;;;;;;;15.50;99.90;;;;;;4976404;28;19967;-86
2021/10/04 13:10:37;;;;;;;;;;;15.50;99.90;;;;;;4974511;28;20000;-85
2021/10/04 13:13:04;;;;;;;;;;;15.50;99.90;;;;;;4972270;28;20008;-86
2021/10/04 13:15:31;;;;;;;;;;;15.50;99.90;;;;;;4967742;28;19955;-87
2021/10/04 13:18:00;;;;;;;;;;;15.50;99.90;;;;;;4972818;28;19979;-86
2021/10/04 13:20:26;;;;;;;;;;;15.50;99.90;;;;;;4975719;28;19982;-87
2021/10/04 13:22:53;;;;;;;;;;;15.50;99.90;;;;;;4974580;28;19963;-87
2021/10/04 13:25:20;;;;;;;;;;;15.40;99.90;;;;;;4975623;28;20015;-88
2021/10/04 13:27:47;;;;;;;;;;;15.40;99.90;;;;;;4979275;28;19960;-87
2021/10/04 13:30:14;;;;;;;;;;;15.30;99.90;;;;;;4978983;28;19940;-86
2021/10/04 13:32:40;;;;;;;;;;;15.30;99.90;;;;;;4978936;28;19937;-86
2021/10/04 13:35:07;;;;;;;;;;;15.30;99.90;;;;;;4977688;28;19958;-86
2021/10/04 13:37:34;;;;;;;;;;;15.30;99.90;;;;;;4978726;28;19954;-86
2021/10/04 13:40:00;;;;;;;;;;;15.20;99.90;;;;;;4978158;28;19959;-86
2021/10/04 13:42:27;;;;;;;;;;;15.40;99.90;;;;;;4977081;28;19967;-87
2021/10/04 13:44:55;;;;;;;;;;;15.20;99.90;;;;;;4976687;28;19934;-86
2021/10/04 13:47:21;;;;;;;;;;;15.20;99.90;;;;;;4977324;28;19935;-86
2021/10/04 13:49:48;;;;;;;;;;;15.20;99.90;;;;;;4974178;28;19952;-86
2021/10/04 13:52:14;;;;;;;;;;;15.30;99.90;;;;;;5019623;23;19978;-90
2021/10/04 13:54:50;;;;;;;;;;;14.50;99.90;;;;;;4976315;29;19929;-89
2021/10/04 13:57:16;;;;;;;;;;;16.00;99.90;;;;;;4976253;29;19963;-90
2021/10/04 13:59:44;;;;;;;;;;;14.20;99.90;;;;;;5022807;23;20015;-86
2021/10/04 14:02:12;;;;;;;;;;;16.30;99.90;;;;;;4986974;28;19969;-88
2021/10/04 14:04:38;;;;;;;;;;;15.40;99.90;;;;;;4985617;28;20315;-89
2021/10/04 14:07:05;;;;;;;;;;;17.30;99.90;;;;;;4984321;28;19951;-89
2021/10/04 14:09:32;;;;;;;;;;;15.30;99.90;;;;;;4981853;28;19953;-88
2021/10/04 14:11:59;;;;;;;;;;;15.20;99.90;;;;;;4978470;28;19964;-88
2021/10/04 14:14:25;;;;;;;;;;;15.60;99.90;;;;;;4979701;28;20032;-89
2021/10/04 14:16:52;;;;;;;;;;;15.40;99.90;;;;;;4981298;28;20373;-90
2021/10/04 14:19:20;;;;;;;;;;;15.30;99.90;;;;;;4986399;28;20041;-89